createdAt,value
2023-03-12T00:02:48.939Z,86.3
2023-03-12T00:08:25.512Z,86.3
2023-03-12T00:14:01.118Z,86.2
2023-03-12T00:19:37.615Z,86.2
2023-03-12T00:25:13.350Z,86.2
2023-03-12T00:30:48.398Z,86.1
2023-03-12T00:36:23.815Z,86.1
2023-03-12T00:41:58.898Z,86.1
2023-03-12T00:47:34.506Z,86
2023-03-12T00:53:10.236Z,86
2023-03-12T00:58:45.284Z,85.9
2023-03-12T01:04:20.353Z,86
2023-03-12T01:09:56.953Z,86
2023-03-12T01:15:32.414Z,85.9
2023-03-12T01:21:07.524Z,86
2023-03-12T01:26:43.051Z,86
2023-03-12T01:32:18.313Z,86.1
2023-03-12T01:37:54.254Z,86
2023-03-12T01:43:30.653Z,86
2023-03-12T01:49:05.822Z,85.9
2023-03-12T01:54:40.986Z,86
2023-03-12T02:00:16.351Z,85.9
2023-03-12T02:05:51.625Z,85.9
2023-03-12T02:11:26.925Z,85.9
2023-03-12T02:17:02.682Z,85.9
2023-03-12T02:22:37.753Z,85.9
2023-03-12T02:28:13.209Z,85.9
2023-03-12T02:33:48.532Z,85.9
2023-03-12T02:39:24.033Z,85.9
2023-03-12T02:44:59.297Z,85.9
2023-03-12T02:50:55.927Z,85.9
2023-03-12T02:56:30.894Z,85.7
2023-03-12T03:02:05.893Z,85.7
2023-03-12T03:07:42.167Z,85.8
2023-03-12T03:13:26.360Z,85.7
2023-03-12T03:19:02.166Z,85.8
2023-03-12T03:24:37.635Z,85.8
2023-03-12T03:30:13.495Z,85.7
2023-03-12T03:35:48.956Z,85.6
2023-03-12T03:41:24.705Z,85.6
2023-03-12T03:46:59.607Z,85.7
2023-03-12T03:52:35.024Z,85.7
2023-03-12T03:58:10.086Z,85.7
2023-03-12T04:03:45.938Z,85.7
2023-03-12T04:09:21.089Z,85.7
2023-03-12T04:14:56.814Z,85.7
2023-03-12T04:20:31.952Z,85.8
2023-03-12T04:26:07.537Z,85.8
2023-03-12T04:31:43.371Z,85.8
2023-03-12T04:37:29.217Z,85.9
2023-03-12T04:43:04.795Z,85.9
2023-03-12T04:48:40.932Z,86
2023-03-12T04:54:17.398Z,85.9
2023-03-12T04:59:52.544Z,86
2023-03-12T05:05:28.281Z,85.9
2023-03-12T05:11:03.753Z,85.9
2023-03-12T05:16:40.604Z,86
2023-03-12T05:22:16.508Z,85.9
2023-03-12T05:27:51.886Z,85.9
2023-03-12T05:33:27.292Z,86
2023-03-12T05:39:02.603Z,85.9
2023-03-12T05:44:37.627Z,85.9
2023-03-12T05:50:12.774Z,85.9
2023-03-12T05:55:49.089Z,86
2023-03-12T06:01:25.081Z,86
2023-03-12T06:07:00.460Z,86.1
2023-03-12T06:12:35.752Z,86.1
2023-03-12T06:18:11.867Z,86
2023-03-12T06:23:47.121Z,86.1
2023-03-12T06:29:22.299Z,86.1
2023-03-12T06:34:57.867Z,86.1
2023-03-12T06:40:33.509Z,86.1
2023-03-12T06:46:09.039Z,86.2
2023-03-12T06:51:45.767Z,86.2
2023-03-12T06:57:21.130Z,86.1
2023-03-12T07:03:17.686Z,86.2
2023-03-12T07:08:53.550Z,86.3
2023-03-12T07:14:28.845Z,86.3
2023-03-12T07:20:05.102Z,86.3
2023-03-12T07:25:40.478Z,86.4
2023-03-12T07:31:15.771Z,86.9
2023-03-12T07:36:53.451Z,88.3
2023-03-12T07:42:30.770Z,88.6
2023-03-12T07:48:07.184Z,88.5
2023-03-12T07:53:43.527Z,87.6
2023-03-12T07:59:20.182Z,87.8
2023-03-12T08:04:55.978Z,86.6
2023-03-12T08:10:33.289Z,84.1
2023-03-12T08:16:09.919Z,85.4
2023-03-12T08:21:45.729Z,85.9
2023-03-12T08:27:21.592Z,83.6
2023-03-12T08:32:56.957Z,85.4
2023-03-12T08:38:32.873Z,83.8
2023-03-12T08:44:08.268Z,85.2
2023-03-12T08:49:43.951Z,84.4
2023-03-12T08:55:19.740Z,84.3
2023-03-12T09:00:55.089Z,83.4
2023-03-12T09:06:32.174Z,82.5
2023-03-12T09:12:08.910Z,82.5
2023-03-12T09:17:48.134Z,81.6
2023-03-12T09:23:23.428Z,82.3
2023-03-12T09:28:58.596Z,80.6
2023-03-12T09:34:39.342Z,80.5
2023-03-12T09:40:14.516Z,77.4
2023-03-12T09:45:50.734Z,78.8
2023-03-12T09:51:29.448Z,77.5
2023-03-12T09:57:05.239Z,77.8
2023-03-12T10:02:41.631Z,79
2023-03-12T10:08:28.558Z,77.5
2023-03-12T10:14:07.836Z,76
2023-03-12T10:19:43.131Z,79.6
2023-03-12T10:25:18.496Z,80.8
2023-03-12T10:30:53.762Z,81.6
2023-03-12T10:36:29.452Z,79.7
2023-03-12T10:42:04.962Z,82
2023-03-12T10:47:40.978Z,82
2023-03-12T10:53:16.531Z,79.6
2023-03-12T10:58:51.638Z,79.1
2023-03-12T11:04:30.568Z,74.3
2023-03-12T11:10:07.726Z,74
2023-03-12T11:15:51.538Z,70.7
2023-03-12T11:21:29.819Z,72.6
2023-03-12T11:27:06.425Z,72.6
2023-03-12T11:32:45.073Z,70.7
2023-03-12T11:38:21.608Z,64.8
2023-03-12T11:43:58.460Z,64.8
2023-03-12T11:49:33.892Z,63.5
2023-03-12T11:55:09.377Z,62.3
2023-03-12T12:00:48.250Z,65.1
2023-03-12T12:06:23.479Z,67.3
2023-03-12T12:11:58.598Z,66.7
2023-03-12T12:17:33.444Z,63
2023-03-12T12:23:09.786Z,65.2
2023-03-12T12:28:47.054Z,65.6
2023-03-12T12:34:22.708Z,62.6
2023-03-12T12:39:58.647Z,60.3
2023-03-12T12:45:34.440Z,60.9
2023-03-12T12:51:09.489Z,60
2023-03-12T12:56:48.127Z,55.4
2023-03-12T13:02:28.711Z,60
2023-03-12T13:08:09.845Z,55.4
2023-03-12T13:13:45.291Z,55.9
2023-03-12T13:19:21.026Z,56.6
2023-03-12T13:24:56.561Z,56.7
2023-03-12T13:30:32.298Z,53
2023-03-12T13:36:09.348Z,51.3
2023-03-12T13:41:45.720Z,52.7
2023-03-12T13:47:21.468Z,51.7
2023-03-12T13:52:56.736Z,49.1
2023-03-12T13:58:31.998Z,47.2
2023-03-12T14:04:18.041Z,47.3
2023-03-12T14:09:53.796Z,47.8
2023-03-12T14:15:29.890Z,47.6
2023-03-12T14:21:05.526Z,48.1
2023-03-12T14:26:40.503Z,46.4
2023-03-12T14:32:15.686Z,32.7
2023-03-12T14:37:51.997Z,35
2023-03-12T14:43:27.821Z,45
2023-03-12T14:49:03.101Z,50
2023-03-12T14:55:22.846Z,44.7
2023-03-12T15:00:55.917Z,35.5
2023-03-12T15:06:30.990Z,33
2023-03-12T15:12:07.335Z,33.8
2023-03-12T15:17:42.625Z,36.8
2023-03-12T15:23:17.975Z,40.3
2023-03-12T15:28:54.890Z,47.1
2023-03-12T15:34:31.068Z,44.7
2023-03-12T15:40:07.804Z,51.8
2023-03-12T15:45:43.673Z,45.2
2023-03-12T15:51:21.378Z,45.9
2023-03-12T15:56:57.252Z,48
2023-03-12T16:02:32.728Z,56.7
2023-03-12T16:08:08.388Z,59.2
2023-03-12T16:13:43.582Z,58.9
2023-03-12T16:19:18.909Z,62.8
2023-03-12T16:24:54.963Z,64.5
2023-03-12T16:30:29.796Z,63.1
2023-03-12T16:36:05.587Z,64.3
2023-03-12T16:41:40.977Z,67.4
2023-03-12T16:47:16.558Z,69.2
2023-03-12T16:52:52.765Z,69.9
2023-03-12T16:58:28.338Z,70.6
2023-03-12T17:04:24.482Z,70.1
2023-03-12T17:10:01.266Z,72.7
2023-03-12T17:15:36.218Z,71.9
2023-03-12T17:21:12.636Z,72.4
2023-03-12T17:26:48.063Z,73.6
2023-03-12T17:32:23.280Z,74.3
2023-03-12T17:37:59.654Z,75.8
2023-03-12T17:43:35.069Z,76.9
2023-03-12T17:49:10.003Z,78
2023-03-12T17:55:07.042Z,78.4
2023-03-12T18:00:45.248Z,78.6
2023-03-12T18:06:23.473Z,79.1
2023-03-12T18:11:58.361Z,79.9
2023-03-12T18:17:34.057Z,80.4
2023-03-12T18:23:09.158Z,80.6
2023-03-12T18:28:44.764Z,81.5
2023-03-12T18:34:28.815Z,81.5
2023-03-12T18:40:04.664Z,80.9
2023-03-12T18:45:40.583Z,81.4
2023-03-12T18:51:17.181Z,81.5
2023-03-12T18:56:52.204Z,81.7
2023-03-12T19:02:28.968Z,82.2
2023-03-12T19:08:23.054Z,82.9
2023-03-12T19:14:01.042Z,83.9
2023-03-12T19:19:47.281Z,84.2
2023-03-12T19:25:22.744Z,84.8
2023-03-12T19:30:57.906Z,85.2
2023-03-12T19:36:33.395Z,85.1
2023-03-12T19:42:08.494Z,85.1
2023-03-12T19:47:43.980Z,85.8
2023-03-12T19:53:41.283Z,86.4
2023-03-12T19:59:14.883Z,86.7
2023-03-12T20:04:51.017Z,86.8
2023-03-12T20:10:26.310Z,87.7
2023-03-12T20:16:02.117Z,87.5
2023-03-12T20:21:37.887Z,87.8
2023-03-12T20:27:13.014Z,88.3
2023-03-12T20:32:49.795Z,89.1
2023-03-12T20:38:25.772Z,89.8
2023-03-12T20:44:01.030Z,90.1
2023-03-12T20:49:37.065Z,89.8
2023-03-12T20:55:34.301Z,89.3
2023-03-12T21:01:07.419Z,89.9
2023-03-12T21:06:42.988Z,91.4
2023-03-12T21:12:18.622Z,92.1
2023-03-12T21:17:53.698Z,91.8
2023-03-12T21:23:29.601Z,92
2023-03-12T21:29:05.265Z,91.5
2023-03-12T21:34:40.498Z,91.3
2023-03-12T21:40:15.861Z,92.2
2023-03-12T21:45:51.139Z,93
2023-03-12T21:51:27.537Z,92.4
2023-03-12T21:57:03.889Z,93
2023-03-12T22:02:39.784Z,92.7
2023-03-12T22:08:15.469Z,93.3
2023-03-12T22:13:53.524Z,94.3
2023-03-12T22:19:29.358Z,94.5
2023-03-12T22:25:04.890Z,94.3
2023-03-12T22:30:40.603Z,94.4
2023-03-12T22:36:16.200Z,94.1
2023-03-12T22:41:51.951Z,93.9
2023-03-12T22:47:27.637Z,91.7
2023-03-12T22:53:02.545Z,88.1
2023-03-12T22:58:38.920Z,87
2023-03-12T23:04:14.707Z,86.5
2023-03-12T23:09:50.563Z,86
2023-03-12T23:15:41.604Z,85.9
2023-03-12T23:21:17.655Z,85.8
2023-03-12T23:26:52.828Z,85.5
2023-03-12T23:32:28.615Z,85.6
2023-03-12T23:38:05.527Z,85.1
2023-03-12T23:43:41.741Z,84.6
2023-03-12T23:49:17.035Z,84.5
2023-03-12T23:54:52.930Z,84.8
